Time;durP1;ratioP1;P1;durP2;ratioP2;P2;SDS_P1;SDS_P2;PMS_P1;PMS_P2;Temp;Humidity;BMP_temperature;BMP_pressure;BME280_temperature;BME280_humidity;BME280_pressure;Samples;Min_cycle;Max_cycle;Signal;HPM_P1;HPM_P2
2022/05/08 00:02:17;;;;;;;8.52;6.82;;;;;;;12.23;98.30;102748.16;10584790;28;20063;-73
2022/05/08 00:07:18;;;;;;;8.50;6.15;;;;;;;12.17;97.73;102750.66;10566798;28;20036;-73
2022/05/08 00:12:18;;;;;;;9.18;6.05;;;;;;;12.04;97.85;102753.84;10584654;28;20024;-73
2022/05/08 00:17:19;;;;;;;13.65;7.13;;;;;;;11.86;97.08;102749.31;10583025;28;20388;-73
2022/05/08 00:22:19;;;;;;;9.48;5.35;;;;;;;11.82;95.98;102752.47;10584279;28;20043;-73
2022/05/08 00:27:19;;;;;;;11.77;6.40;;;;;;;11.73;96.17;102754.28;10581226;28;20038;-73
2022/05/08 00:32:21;;;;;;;13.15;6.43;;;;;;;11.66;95.87;102755.09;10583460;28;20531;-73
2022/05/08 00:37:21;;;;;;;6.53;5.55;;;;;;;11.67;94.34;102745.94;10582167;28;20038;-73
2022/05/08 00:42:22;;;;;;;26.63;6.55;;;;;;;11.53;96.01;102750.09;10565103;28;20063;-73
2022/05/08 00:47:22;;;;;;;11.40;6.65;;;;;;;11.39;96.45;102770.47;10565148;28;20035;-73
2022/05/08 00:52:23;;;;;;;9.52;7.63;;;;;;;11.27;96.37;102764.47;10582858;28;20063;-73
2022/05/08 00:57:23;;;;;;;16.98;7.80;;;;;;;11.10;97.15;102771.63;10582579;28;20058;-73
2022/05/08 01:02:23;;;;;;;13.18;8.23;;;;;;;10.87;98.33;102762.22;10583472;28;20028;-73
2022/05/08 01:07:26;;;;;;;19.58;8.02;;;;;;;10.60;99.00;102758.56;10582620;28;20039;-73
2022/05/08 01:12:26;;;;;;;10.18;6.43;;;;;;;10.46;97.13;102748.22;10582046;28;20045;-73
2022/05/08 01:17:27;;;;;;;12.00;7.57;;;;;;;10.27;97.77;102753.75;10580786;28;20077;-73
2022/05/08 01:22:27;;;;;;;17.50;8.52;;;;;;;10.05;99.15;102758.53;10581176;28;20031;-73
2022/05/08 01:27:27;;;;;;;29.23;9.45;;;;;;;9.83;100.00;102753.44;10580617;28;20051;-73
2022/05/08 01:32:28;;;;;;;10.18;7.95;;;;;;;9.77;98.61;102760.31;10580570;28;20165;-73
2022/05/08 01:37:28;;;;;;;18.33;9.68;;;;;;;9.67;99.15;102759.50;10581608;28;20119;-72
2022/05/08 01:42:29;;;;;;;14.13;7.18;;;;;;;9.55;98.03;102762.34;10582318;28;20113;-73
2022/05/08 01:52:48;;;;;;;10.77;6.85;;;;;;;9.31;100.00;102770.91;10580079;28;20031;-72
2022/05/08 01:57:49;;;;;;;18.00;7.88;;;;;;;9.14;100.00;102773.50;10581531;28;20059;-73
2022/05/08 02:02:49;;;;;;;20.77;8.07;;;;;;;9.12;100.00;102780.88;10581081;28;20066;-73
2022/05/08 02:07:49;;;;;;;17.70;9.07;;;;;;;9.06;100.00;102775.06;10579639;28;20540;-73
2022/05/08 02:12:50;;;;;;;28.30;9.80;;;;;;;9.00;99.90;102789.13;10580828;28;20379;-73
2022/05/08 02:17:50;;;;;;;19.70;8.70;;;;;;;8.93;100.00;102784.41;10581200;28;20544;-73
2022/05/08 02:22:51;;;;;;;33.03;8.43;;;;;;;8.89;100.00;102783.84;10580710;28;20069;-72
2022/05/08 02:27:52;;;;;;;25.63;9.32;;;;;;;8.85;100.00;102780.59;10578963;28;20114;-73
2022/05/08 02:32:55;;;;;;;8.13;6.38;;;;;;;8.84;99.83;102784.28;10580542;28;20486;-72
2022/05/08 02:37:56;;;;;;;18.40;6.22;;;;;;;8.76;99.31;102780.56;10580434;28;20383;-72
2022/05/08 02:42:56;;;;;;;22.98;7.40;;;;;;;8.70;100.00;102781.97;10562295;28;20054;-72
2022/05/08 02:47:57;;;;;;;22.52;8.25;;;;;;;8.65;99.70;102799.56;10581419;28;20160;-73
2022/05/08 02:52:57;;;;;;;30.27;8.40;;;;;;;8.59;98.40;102796.47;10587602;28;20027;-73
2022/05/08 03:03:17;;;;;;;26.33;8.60;;;;;;;8.40;100.00;102795.53;10586453;28;20481;-72
2022/05/08 03:08:18;;;;;;;17.27;8.43;;;;;;;8.31;100.00;102791.78;10587133;28;20090;-72
2022/05/08 03:13:18;;;;;;;13.32;7.43;;;;;;;8.29;100.00;102793.75;10569398;28;20114;-72
2022/05/08 03:18:19;;;;;;;37.38;8.88;;;;;;;8.18;100.00;102805.50;10585439;28;20019;-72
2022/05/08 03:23:19;;;;;;;25.92;9.20;;;;;;;8.14;100.00;102804.06;10585573;28;20122;-73
2022/05/08 03:28:20;;;;;;;16.17;7.53;;;;;;;8.11;100.00;102813.28;10584850;28;20059;-72
2022/05/08 03:33:21;;;;;;;23.30;6.93;;;;;;;8.02;100.00;102803.28;10586156;28;20031;-72
2022/05/08 03:38:21;;;;;;;22.63;8.45;;;;;;;7.96;100.00;102814.63;10586245;28;20069;-72
2022/05/08 03:43:22;;;;;;;27.40;9.32;;;;;;;7.90;100.00;102817.84;10585675;28;20134;-73
2022/05/08 03:48:22;;;;;;;24.75;8.15;;;;;;;7.89;100.00;102816.16;10584541;28;20035;-73
2022/05/08 03:53:23;;;;;;;21.98;8.48;;;;;;;7.89;100.00;102813.44;10567268;28;20028;-72
2022/05/08 03:58:23;;;;;;;18.40;7.25;;;;;;;7.86;100.00;102821.81;10585064;28;20112;-72
2022/05/08 04:03:24;;;;;;;20.98;8.30;;;;;;;7.83;100.00;102822.06;10584057;28;20470;-73
2022/05/08 04:08:24;;;;;;;25.13;9.18;;;;;;;7.92;100.00;102827.53;10584820;28;20074;-72
2022/05/08 04:13:24;;;;;;;27.45;8.52;;;;;;;8.14;100.00;102826.50;10584707;28;20034;-73
2022/05/08 04:18:26;;;;;;;25.48;7.70;;;;;;;8.23;100.00;102845.56;10582996;28;20453;-72
2022/05/08 04:28:45;;;;;;;20.73;8.05;;;;;;;8.32;100.00;102837.53;10583560;28;20035;-73
2022/05/08 04:33:45;;;;;;;19.83;6.70;;;;;;;8.27;100.00;102844.34;10582373;28;20055;-72
2022/05/08 04:38:46;;;;;;;22.35;7.80;;;;;;;8.26;100.00;102839.91;10582560;28;20118;-72
2022/05/08 04:43:46;;;;;;;17.40;8.35;;;;;;;8.19;100.00;102849.53;10582151;28;20127;-72
2022/05/08 04:48:47;;;;;;;18.27;7.47;;;;;;;8.29;100.00;102842.34;10582065;28;20475;-73
2022/05/08 04:53:47;;;;;;;25.38;7.47;;;;;;;8.27;100.00;102852.44;10583100;28;20028;-72
2022/05/08 04:58:48;;;;;;;21.90;7.55;;;;;;;8.31;100.00;102859.25;10547003;28;20032;-72
2022/05/08 05:03:49;;;;;;;19.02;6.32;;;;;;;8.46;100.00;102868.75;10581631;28;20073;-72
2022/05/08 05:08:49;;;;;;;18.75;7.28;;;;;;;8.95;100.00;102877.88;10581311;28;20036;-72
2022/05/08 05:13:50;;;;;;;31.63;7.95;;;;;;;9.12;100.00;102875.47;10581019;28;20040;-73
2022/05/08 05:18:50;;;;;;;23.35;6.88;;;;;;;9.21;100.00;102888.16;10582088;28;20031;-72
2022/05/08 05:23:51;;;;;;;26.30;6.82;;;;;;;9.60;100.00;102883.63;10581964;28;20072;-72
2022/05/08 05:28:51;;;;;;;9.55;5.80;;;;;;;10.44;100.00;102888.38;10581185;28;20040;-72
2022/05/08 05:33:51;;;;;;;10.38;5.00;;;;;;;11.08;100.00;102884.78;10563667;28;20031;-73
2022/05/08 05:38:52;;;;;;;16.50;5.75;;;;;;;11.51;99.32;102885.03;10580807;28;20074;-72
2022/05/08 05:43:53;;;;;;;14.50;6.28;;;;;;;12.00;96.23;102882.78;10580397;28;20376;-73
2022/05/08 05:48:53;;;;;;;18.92;5.30;;;;;;;12.07;94.04;102878.44;10563075;28;20046;-73
2022/05/08 05:53:54;;;;;;;18.45;6.60;;;;;;;12.90;91.20;102880.56;10581275;28;20490;-73
2022/05/08 05:58:54;;;;;;;14.00;5.82;;;;;;;13.17;85.53;102891.16;10579264;28;20125;-73
2022/05/08 06:03:55;;;;;;;5.78;3.90;;;;;;;13.69;85.47;102896.41;10581214;28;20092;-73
2022/05/08 06:08:55;;;;;;;20.58;4.45;;;;;;;13.77;75.20;102890.09;10581069;28;20467;-73
2022/05/08 06:13:55;;;;;;;11.57;4.35;;;;;;;13.57;74.47;102902.34;10579541;28;20118;-73
2022/05/08 06:18:56;;;;;;;5.07;4.38;;;;;;;13.08;74.82;102905.78;10580170;28;20093;-73
2022/05/08 06:23:56;;;;;;;16.25;5.85;;;;;;;12.94;75.41;102909.13;10583473;28;20527;-73
2022/05/08 06:28:58;;;;;;;10.45;4.70;;;;;;;13.40;74.50;102901.47;10588124;28;20035;-73
2022/05/08 06:33:58;;;;;;;11.50;4.10;;;;;;;14.35;70.85;102909.97;10587189;28;20502;-73
2022/05/08 06:38:59;;;;;;;15.18;4.78;;;;;;;14.59;68.35;102903.66;10570253;28;20042;-72
2022/05/08 06:44:00;;;;;;;16.52;5.03;;;;;;;13.98;70.10;102921.44;10588315;28;20051;-73
2022/05/08 06:49:00;;;;;;;9.60;4.38;;;;;;;13.84;69.91;102921.06;10586838;28;20067;-73
2022/05/08 06:54:01;;;;;;;20.98;5.85;;;;;;;12.66;74.63;102919.34;10587728;27;20111;-72
2022/05/08 07:04:22;;;;;;;9.50;3.85;;;;;;;15.37;68.19;102916.41;10586413;28;20063;-73
2022/05/08 07:09:22;;;;;;;16.77;3.10;;;;;;;17.08;62.85;102921.31;10531142;28;20035;-72
2022/05/08 07:14:23;;;;;;;7.53;3.33;;;;;;;17.89;58.75;102919.25;10544402;28;20036;-72
2022/05/08 07:19:23;;;;;;;17.23;5.07;;;;;;;17.46;55.70;102929.34;10543184;28;20036;-73
2022/05/08 07:24:24;;;;;;;8.45;4.00;;;;;;;17.26;55.02;102927.22;10543330;28;20119;-73
2022/05/08 07:29:24;;;;;;;5.32;3.35;;;;;;;16.51;57.13;102933.75;10509538;28;20126;-73
2022/05/08 07:39:43;;;;;;;6.95;3.85;;;;;;;18.48;53.18;102934.50;10544202;28;20471;-73
2022/05/08 07:44:44;;;;;;;11.13;4.72;;;;;;;18.53;51.21;102929.25;10543549;28;20160;-73
2022/05/08 07:49:44;;;;;;;9.07;3.65;;;;;;;18.56;52.03;102934.31;10543011;28;20047;-73
2022/05/08 07:54:45;;;;;;;3.60;2.63;;;;;;;18.64;52.17;102936.09;10542998;28;20036;-73
2022/05/08 07:59:45;;;;;;;11.02;4.63;;;;;;;18.03;50.67;102939.44;10542265;28;20108;-73
2022/05/08 08:04:45;;;;;;;6.03;3.45;;;;;;;18.25;51.93;102952.06;10542558;28;20028;-73
2022/05/08 08:09:46;;;;;;;4.50;3.42;;;;;;;19.17;48.57;102947.34;10541749;28;20032;-73
2022/05/08 08:14:46;;;;;;;7.30;3.38;;;;;;;19.28;48.75;102942.13;10541939;28;20039;-73
2022/05/08 08:19:46;;;;;;;7.60;3.47;;;;;;;18.98;49.31;102938.81;10542731;28;20075;-73
2022/05/08 08:24:48;;;;;;;5.07;3.22;;;;;;;19.52;46.71;102945.34;10524614;28;20036;-74
2022/05/08 08:29:48;;;;;;;15.15;3.63;;;;;;;18.65;47.68;102940.50;10523353;28;20040;-73
2022/05/08 08:34:49;;;;;;;8.35;3.03;;;;;;;18.86;48.32;102939.59;10540345;28;20430;-73
2022/05/08 08:39:49;;;;;;;4.57;2.92;;;;;;;19.04;47.26;102937.16;10541359;28;20364;-74
2022/05/08 08:50:09;;;;;;;4.45;3.92;;;;;;;19.74;44.84;102933.16;10526432;28;20487;-72
2022/05/08 08:55:10;;;;;;;4.35;3.35;;;;;;;20.15;45.58;102932.13;10541009;28;20048;-73
2022/05/08 09:00:10;;;;;;;5.60;3.03;;;;;;;20.85;47.82;102934.38;10540502;28;20101;-69
2022/05/08 09:05:11;;;;;;;6.80;2.67;;;;;;;21.01;42.85;102920.13;10522629;28;20480;-72
2022/05/08 09:10:22;;;;;;;6.07;3.17;;;;;;;19.51;45.41;102943.66;10522646;28;20213;-67
2022/05/08 09:15:26;;;;;;;5.18;3.65;;;;;;;19.80;45.01;102936.97;10539957;28;20387;-72
2022/05/08 09:20:29;;;;;;;8.02;3.03;;;;;;;19.95;45.37;102934.03;10539578;28;20036;-68
2022/05/08 09:25:56;;;;;;;9.02;3.42;;;;;;;21.18;47.01;102930.63;10521399;28;20036;-70
2022/05/08 09:31:06;;;;;;;5.37;3.07;;;;;;;21.91;39.59;102921.94;10538024;28;20032;-69
2022/05/08 09:36:22;;;;;;;4.82;3.42;;;;;;;21.77;44.04;102921.19;10538788;28;20107;-70
2022/05/08 09:41:23;;;;;;;7.30;3.13;;;;;;;22.49;39.50;102918.88;10521793;28;20130;-70
2022/05/08 09:46:24;;;;;;;8.75;2.83;;;;;;;22.99;43.02;102921.53;10539231;28;20044;-71
2022/05/08 09:51:25;;;;;;;5.00;2.42;;;;;;;23.06;40.61;102913.16;10521048;28;20028;-70
2022/05/08 09:56:25;;;;;;;10.57;3.85;;;;;;;22.68;39.29;102909.53;10538820;28;20031;-67
2022/05/08 10:01:26;;;;;;;6.75;3.10;;;;;;;22.54;40.52;102915.44;10529405;28;20035;-68
2022/05/08 10:06:28;;;;;;;5.20;2.58;;;;;;;22.75;39.66;102909.47;10547676;28;20488;-67
2022/05/08 10:16:57;;;;;;;6.22;3.42;;;;;;;22.48;37.29;102901.47;10547267;28;20126;-69
2022/05/08 10:21:59;;;;;;;6.15;3.65;;;;;;;22.41;37.22;102905.38;10512913;28;20426;-68
2022/05/08 10:27:19;;;;;;;5.57;2.35;;;;;;;23.19;40.00;102900.00;10546304;28;20399;-68
2022/05/08 10:32:32;;;;;;;6.55;3.83;;;;;;;22.36;36.46;102908.81;10545670;28;20028;-69
2022/05/08 10:37:32;;;;;;;4.93;3.25;;;;;;;22.06;36.80;102900.38;10545681;28;20162;-69
2022/05/08 10:42:39;;;;;;;7.18;2.95;;;;;;;21.13;38.16;102899.09;10528042;28;20162;-72
2022/05/08 10:47:40;;;;;;;4.63;2.25;;;;;;;22.63;38.19;102900.28;10546080;28;20464;-73
2022/05/08 10:52:44;;;;;;;7.32;3.40;;;;;;;24.02;37.54;102897.47;10545576;28;20028;-72
2022/05/08 10:57:49;;;;;;;8.38;2.55;;;;;;;23.76;33.14;102904.31;10544662;28;20118;-72
2022/05/08 11:02:59;;;;;;;8.15;3.08;;;;;;;22.83;37.34;102905.56;10526648;28;20483;-68
2022/05/08 11:08:07;;;;;;;6.68;2.60;;;;;;;23.64;37.31;102884.88;10544253;28;20468;-71
2022/05/08 11:13:12;;;;;;;5.80;3.70;;;;;;;22.92;32.88;102893.13;10494355;28;20028;-68
2022/05/08 11:18:20;;;;;;;6.57;2.97;;;;;;;22.64;33.61;102891.75;10544200;28;20039;-67
2022/05/08 11:23:21;;;;;;;14.23;2.22;;;;;;;22.62;34.27;102893.03;10543272;28;20403;-69
2022/05/08 11:28:22;;;;;;;10.13;2.95;;;;;;;22.83;34.09;102888.97;10543443;28;20476;-73
2022/05/08 11:38:55;;;;;;;9.95;3.13;;;;;;;21.79;35.73;102884.06;10542577;28;20433;-66
2022/05/08 11:43:57;;;;;;;3.15;2.28;;;;;;;22.16;35.93;102875.06;10508520;28;20048;-66
2022/05/08 11:48:57;;;;;;;3.78;2.33;;;;;;;23.16;36.55;102866.44;10520631;28;20124;-66
2022/05/08 11:53:57;;;;;;;3.97;2.30;;;;;;;22.96;34.11;102869.50;10405611;28;20048;-67
2022/05/08 11:59:03;;;;;;;5.20;2.75;;;;;;;21.98;35.06;102868.38;10499964;28;20277;-67
2022/05/08 12:04:24;;;;;;;11.10;2.57;;;;;;;21.68;35.53;102864.63;10482682;28;20032;-72
2022/05/08 12:09:28;;;;;;;2.50;2.22;;;;;;;21.47;37.05;102866.69;10499823;28;20032;-69
2022/05/08 12:14:30;;;;;;;4.05;2.80;;;;;;;22.49;35.06;102860.91;10499661;28;20036;-66
2022/05/08 12:19:31;;;;;;;5.30;2.95;;;;;;;22.50;36.60;102863.44;10499237;28;20037;-67
2022/05/08 12:24:31;;;;;;;2.42;2.22;;;;;;;23.25;37.15;102851.22;10498794;28;20041;-66
2022/05/08 12:29:32;;;;;;;12.40;2.70;;;;;;;23.70;35.83;102855.47;10498390;28;20040;-68
2022/05/08 12:34:32;;;;;;;5.25;3.13;;;;;;;23.31;35.38;102852.22;10481312;28;20032;-70
2022/05/08 12:39:32;;;;;;;7.57;3.17;;;;;;;22.61;34.59;102849.94;10498745;28;20044;-66
2022/05/08 12:44:36;;;;;;;3.70;2.63;;;;;;;22.57;34.89;102851.47;10480504;28;20045;-66
2022/05/08 12:49:38;;;;;;;9.70;2.63;;;;;;;21.93;36.46;102824.09;10523563;28;20089;-73
2022/05/08 12:54:38;;;;;;;4.03;2.72;;;;;;;21.68;35.33;102837.06;10508561;28;20024;-74
2022/05/08 12:59:46;;;;;;;11.65;2.75;;;;;;;21.38;37.23;102843.22;10515046;28;20032;-72
2022/05/08 13:04:48;;;;;;;4.63;2.15;;;;;;;22.14;35.81;102835.78;10520684;28;20032;-72
2022/05/08 13:09:49;;;;;;;4.57;2.25;;;;;;;21.85;36.14;102824.38;10539245;28;20161;-74
2022/05/08 13:14:49;;;;;;;9.35;2.65;;;;;;;21.70;36.80;102816.47;10507962;28;20153;-74
2022/05/08 13:19:50;;;;;;;2.47;2.28;;;;;;;21.80;36.40;102808.53;10497493;28;20060;-73
2022/05/08 13:24:50;;;;;;;6.47;2.53;;;;;;;20.84;36.04;102806.03;10532330;28;20032;-73
2022/05/08 13:29:50;;;;;;;6.68;2.85;;;;;;;21.53;38.53;102799.63;10521316;28;20040;-74
2022/05/08 13:34:51;;;;;;;12.35;2.70;;;;;;;22.10;38.12;102791.25;10478384;28;20109;-73
2022/05/08 13:39:51;;;;;;;3.63;2.83;;;;;;;22.25;37.22;102796.44;10495912;28;20032;-75
2022/05/08 13:44:55;;;;;;;3.30;2.42;;;;;;;22.46;34.71;102801.50;10496913;28;20056;-74
2022/05/08 13:49:56;;;;;;;7.82;3.03;;;;;;;21.35;35.70;102785.81;10497291;28;20040;-73
2022/05/08 13:54:56;;;;;;;3.25;2.63;;;;;;;21.08;36.18;102785.94;10484955;28;20032;-72
2022/05/08 13:59:56;;;;;;;4.53;2.75;;;;;;;20.51;36.02;102776.72;10516860;28;20035;-74
2022/05/08 14:04:57;;;;;;;1.60;1.48;;;;;;;20.60;39.54;102777.31;10520336;28;20058;-75
2022/05/08 14:09:57;;;;;;;10.77;2.92;;;;;;;21.20;39.92;102771.47;10538241;28;20039;-74
2022/05/08 14:14:58;;;;;;;4.77;2.70;;;;;;;21.35;39.71;102783.88;10538546;28;20031;-74
2022/05/08 14:19:58;;;;;;;5.47;2.90;;;;;;;21.33;39.83;102774.13;10503238;28;20285;-74
2022/05/08 14:25:02;;;;;;;3.40;2.35;;;;;;;20.78;41.29;102762.84;10503996;28;20028;-73
2022/05/08 14:30:05;;;;;;;4.43;2.70;;;;;;;20.88;41.81;102768.72;10503383;28;20055;-74
2022/05/08 14:40:28;;;;;;;6.75;2.47;;;;;;;20.78;41.99;102765.59;10481225;28;20032;-75
2022/05/08 14:45:29;;;;;;;3.58;1.73;;;;;;;20.62;42.63;102756.78;10540374;28;20085;-73
2022/05/08 14:50:30;;;;;;;2.55;2.35;;;;;;;20.50;41.63;102753.00;10525915;28;20040;-74
2022/05/08 14:55:31;;;;;;;5.35;2.72;;;;;;;20.18;42.97;102750.16;10545679;28;20051;-74
2022/05/08 15:00:31;;;;;;;6.13;2.90;;;;;;;19.89;43.15;102739.66;10545135;28;20043;-73
2022/05/08 15:05:32;;;;;;;4.75;1.92;;;;;;;19.67;44.51;102742.66;10527214;28;20032;-74
2022/05/08 15:10:33;;;;;;;3.63;2.88;;;;;;;19.76;44.87;102745.19;10526955;28;20181;-73
2022/05/08 15:15:33;;;;;;;7.03;2.45;;;;;;;19.71;44.81;102748.56;10526795;28;20596;-73
2022/05/08 15:20:34;;;;;;;10.68;3.15;;;;;;;19.78;44.54;102729.31;10545099;28;20114;-74
2022/05/08 15:25:34;;;;;;;2.45;1.80;;;;;;;19.55;45.29;102725.09;10509922;28;20028;-74
2022/05/08 15:30:35;;;;;;;4.20;2.72;;;;;;;19.47;46.19;102736.31;10543686;28;20032;-74
2022/05/08 15:35:36;;;;;;;2.83;2.35;;;;;;;19.25;46.15;102720.03;10543746;28;20039;-73
2022/05/08 15:40:36;;;;;;;5.47;2.70;;;;;;;19.09;45.76;102728.69;10509233;28;20024;-73
2022/05/08 15:45:36;;;;;;;4.97;2.60;;;;;;;18.79;47.00;102734.56;10543826;28;20028;-73
2022/05/08 15:50:37;;;;;;;20.92;2.28;;;;;;;18.61;47.61;102731.53;10525586;28;20494;-74
2022/05/08 15:55:37;;;;;;;4.38;2.78;;;;;;;18.47;47.95;102738.84;10542825;28;20031;-73
2022/05/08 16:00:38;;;;;;;4.50;2.72;;;;;;;18.31;48.15;102730.97;10542529;28;20071;-73
2022/05/08 16:05:38;;;;;;;5.30;3.10;;;;;;;18.08;48.42;102723.06;10542856;28;20051;-73
2022/05/08 16:10:39;;;;;;;5.55;3.15;;;;;;;17.90;48.67;102729.09;10542331;28;20035;-73
2022/05/08 16:26:17;;;;;;;9.27;2.30;;;;;;;16.50;51.69;102729.69;10526795;28;20451;-73
2022/05/08 16:31:17;;;;;;;7.03;3.03;;;;;;;16.35;50.34;102729.72;10522855;28;20028;-73
2022/05/08 16:36:18;;;;;;;8.35;2.78;;;;;;;16.12;51.51;102724.38;10541431;28;20036;-73
2022/05/08 16:41:19;;;;;;;8.50;3.28;;;;;;;15.72;55.80;102729.25;10516180;28;20040;-73
2022/05/08 16:46:20;;;;;;;5.55;3.50;;;;;;;15.48;56.12;102721.31;10541678;28;20028;-73
2022/05/08 16:51:21;;;;;;;7.28;3.55;;;;;;;15.41;55.61;102723.94;10522969;28;20115;-73
2022/05/08 16:56:23;;;;;;;8.02;2.40;;;;;;;15.28;56.43;102729.13;10540643;28;20448;-73
2022/05/08 17:01:24;;;;;;;10.15;3.13;;;;;;;15.09;58.12;102733.22;10540237;28;20028;-73
2022/05/08 17:06:25;;;;;;;10.52;3.08;;;;;;;14.96;58.85;102728.38;10505045;28;20101;-73
2022/05/08 17:11:25;;;;;;;4.80;2.88;;;;;;;14.93;58.61;102728.72;10540309;28;20036;-73
2022/05/08 17:16:26;;;;;;;2.90;2.50;;;;;;;14.80;57.68;102723.88;10539437;28;20062;-74
2022/05/08 17:21:27;;;;;;;3.58;2.63;;;;;;;14.65;59.75;102731.16;10540066;28;20027;-73
2022/05/08 17:28:45;;;;;;;10.90;3.90;;;;;;;14.64;57.89;102724.88;10539940;28;20028;-73
2022/05/08 17:31:47;;;;;;;4.53;3.50;;;;;;;14.50;60.04;102717.41;10539836;28;20028;-73
2022/05/08 17:36:48;;;;;;;11.35;3.50;;;;;;;14.38;61.08;102724.28;10539586;28;20036;-73
2022/05/08 17:41:48;;;;;;;27.85;4.47;;;;;;;14.31;62.07;102732.31;10539388;28;20048;-73
2022/05/08 17:46:49;;;;;;;6.28;3.75;;;;;;;14.23;59.17;102731.50;10521259;28;20028;-73
2022/05/08 17:51:50;;;;;;;14.32;3.03;;;;;;;14.12;59.71;102730.03;10539229;28;20024;-73
2022/05/08 17:56:51;;;;;;;19.52;3.42;;;;;;;13.95;61.31;102734.69;10538499;28;20024;-73
2022/05/08 18:05:53;;;;;;;11.73;2.92;;;;;;;13.89;64.01;102727.22;10504378;28;20028;-73
2022/05/08 18:07:11;;;;;;;9.88;3.13;;;;;;;13.79;63.00;102718.41;10538813;28;20058;-73
2022/05/08 18:12:12;;;;;;;5.03;2.83;;;;;;;13.76;62.15;102724.19;10538849;28;20047;-73
2022/05/08 18:17:12;;;;;;;4.63;3.75;;;;;;;13.65;62.27;102726.22;10538782;28;20263;-73
2022/05/08 18:22:12;;;;;;;8.07;3.47;;;;;;;13.55;63.20;102725.56;10529112;28;20067;-73
2022/05/08 18:27:13;;;;;;;3.95;3.53;;;;;;;13.45;64.79;102730.34;10546366;28;20543;-73
2022/05/08 18:32:13;;;;;;;8.23;2.75;;;;;;;13.35;63.88;102725.09;10546498;28;20036;-73
2022/05/08 18:37:14;;;;;;;12.98;3.80;;;;;;;13.27;63.41;102730.53;10528333;28;20039;-73
2022/05/08 18:42:16;;;;;;;7.50;3.20;;;;;;;13.11;63.65;102730.50;10527647;28;20048;-73
2022/05/08 18:47:17;;;;;;;10.95;3.45;;;;;;;12.98;66.83;102740.00;10546183;28;20024;-73
2022/05/08 18:52:18;;;;;;;10.07;4.07;;;;;;;12.89;65.61;102737.44;10527763;28;20456;-72
2022/05/08 18:57:18;;;;;;;8.65;3.70;;;;;;;12.76;64.60;102738.81;10544971;28;20064;-73
2022/05/08 19:02:19;;;;;;;8.05;3.00;;;;;;;12.66;65.45;102751.69;10545418;28;20089;-73
2022/05/08 19:07:21;;;;;;;14.25;4.50;;;;;;;12.53;63.86;102745.88;10543889;28;20031;-73
2022/05/08 19:12:21;;;;;;;22.63;4.32;;;;;;;12.34;65.42;102742.41;10527445;28;20028;-72
2022/05/08 19:17:22;;;;;;;9.60;4.45;;;;;;;12.24;64.97;102740.84;10546416;28;20020;-73
2022/05/08 19:22:23;;;;;;;24.90;5.63;;;;;;;12.17;65.55;102750.66;10544633;28;20050;-73
2022/05/08 19:27:23;;;;;;;4.80;3.40;;;;;;;12.06;65.24;102752.66;10544178;28;20044;-73
2022/05/08 19:37:58;;;;;;;19.30;4.32;;;;;;;11.89;69.07;102775.28;10544033;28;20466;-73
2022/05/08 19:42:58;;;;;;;16.80;5.47;;;;;;;11.82;67.79;102766.91;10544014;28;20104;-73
2022/05/08 19:47:59;;;;;;;20.52;6.03;;;;;;;11.79;70.06;102778.06;10543671;28;20528;-72
2022/05/08 19:53:00;;;;;;;12.00;4.72;;;;;;;11.73;73.40;102778.72;10543309;28;20460;-73
2022/05/08 19:58:02;;;;;;;9.55;4.47;;;;;;;11.68;73.71;102786.50;10525009;28;20028;-73
2022/05/08 20:03:03;;;;;;;8.90;3.80;;;;;;;11.54;75.52;102795.19;10508585;28;20071;-72
2022/05/08 20:08:04;;;;;;;16.70;4.38;;;;;;;11.41;76.01;102791.03;10525159;28;20027;-74
2022/05/08 20:13:04;;;;;;;16.45;4.45;;;;;;;11.32;75.34;102797.38;10524791;28;20065;-73
2022/05/08 20:18:06;;;;;;;8.75;3.38;;;;;;;11.25;74.25;102801.72;10541091;28;20035;-73
2022/05/08 20:23:07;;;;;;;11.23;3.60;;;;;;;11.10;75.22;102801.44;10524279;28;20027;-72
2022/05/08 20:28:08;;;;;;;11.70;3.42;;;;;;;10.98;76.28;102809.94;10541472;28;20460;-72
2022/05/08 20:33:08;;;;;;;9.85;3.97;;;;;;;10.90;74.97;102810.69;10523866;28;20020;-72
2022/05/08 20:38:09;;;;;;;11.27;3.67;;;;;;;10.77;74.86;102808.34;10541878;28;20050;-73
2022/05/08 20:43:10;;;;;;;13.60;5.15;;;;;;;10.62;78.62;102815.28;10522296;28;20059;-72
2022/05/08 20:48:11;;;;;;;4.55;2.95;;;;;;;10.52;79.19;102809.06;10540576;28;20064;-73
2022/05/08 20:53:12;;;;;;;9.57;3.83;;;;;;;10.49;76.30;102815.63;10541184;28;20028;-73
2022/05/08 20:58:12;;;;;;;6.22;4.03;;;;;;;10.37;76.54;102827.66;10541039;28;20122;-72
2022/05/08 21:03:13;;;;;;;21.73;6.28;;;;;;;10.27;79.42;102827.69;10540968;28;20455;-72
2022/05/08 21:08:13;;;;;;;4.72;3.75;;;;;;;10.13;82.86;102817.34;10522825;28;20074;-72
2022/05/08 21:13:14;;;;;;;14.80;4.47;;;;;;;10.14;78.67;102819.88;10540650;28;20028;-73
2022/05/08 21:18:15;;;;;;;4.93;2.95;;;;;;;10.05;80.01;102828.91;10540821;28;20525;-73
2022/05/08 21:23:15;;;;;;;6.32;3.67;;;;;;;9.98;80.78;102823.19;10522411;28;20036;-72
2022/05/08 21:28:15;;;;;;;11.80;3.80;;;;;;;9.95;79.42;102811.81;10540262;28;20103;-71
2022/05/08 21:33:16;;;;;;;12.50;3.75;;;;;;;9.87;81.44;102814.41;10539232;28;20028;-73
2022/05/08 21:38:16;;;;;;;5.55;4.18;;;;;;;9.80;82.49;102821.41;10522257;28;20124;-73
2022/05/08 21:43:16;;;;;;;15.75;4.25;;;;;;;9.74;80.40;102817.44;10539409;28;20075;-73
2022/05/08 21:48:17;;;;;;;11.68;4.78;;;;;;;9.64;80.18;102808.47;10539342;28;20040;-71
2022/05/08 21:53:17;;;;;;;14.65;4.82;;;;;;;9.55;79.69;102819.16;10539226;28;20032;-72
2022/05/08 21:58:20;;;;;;;11.57;5.60;;;;;;;9.51;80.15;102819.59;10520672;28;20056;-72
2022/05/08 22:03:21;;;;;;;11.02;4.22;;;;;;;9.44;78.08;102818.44;10539177;28;20059;-72
2022/05/08 22:08:21;;;;;;;8.35;3.88;;;;;;;9.38;78.11;102825.31;10538949;28;20040;-73
2022/05/08 22:13:22;;;;;;;12.35;4.68;;;;;;;9.35;77.31;102824.69;10538843;28;20039;-72
2022/05/08 22:23:41;;;;;;;5.30;3.80;;;;;;;9.32;79.00;102826.72;10523462;28;20039;-73
2022/05/08 22:28:42;;;;;;;4.57;3.97;;;;;;;9.31;80.48;102824.97;10520171;28;20032;-72
2022/05/08 22:33:42;;;;;;;7.90;4.10;;;;;;;9.26;78.78;102839.94;10520414;28;20465;-72
2022/05/08 22:38:43;;;;;;;8.82;3.63;;;;;;;9.18;78.14;102831.69;10538466;28;20036;-72
2022/05/08 22:43:43;;;;;;;3.45;3.15;;;;;;;9.05;78.14;102830.09;10538459;28;20056;-72
2022/05/08 22:48:43;;;;;;;9.70;4.55;;;;;;;9.02;77.80;102834.94;10538180;28;20044;-72
2022/05/08 22:53:44;;;;;;;5.75;4.72;;;;;;;8.98;80.01;102830.81;10537948;28;20055;-72
2022/05/08 22:58:44;;;;;;;7.40;4.65;;;;;;;8.95;81.67;102831.94;10537240;28;20040;-71
2022/05/08 23:03:45;;;;;;;10.75;3.85;;;;;;;8.86;81.80;102819.25;10538697;28;20032;-72
2022/05/08 23:08:45;;;;;;;16.00;4.53;;;;;;;8.84;82.43;102832.91;10544672;28;20028;-72
2022/05/08 23:13:45;;;;;;;13.00;5.60;;;;;;;8.78;83.13;102827.22;10545088;28;20032;-72
2022/05/08 23:18:46;;;;;;;7.50;5.28;;;;;;;8.73;87.69;102822.22;10544989;28;20372;-72
2022/05/08 23:23:47;;;;;;;8.43;5.82;;;;;;;8.68;91.34;102827.19;10544536;28;20028;-72
2022/05/08 23:28:47;;;;;;;14.77;6.15;;;;;;;8.60;93.42;102816.22;10544244;28;20399;-71
2022/05/08 23:33:48;;;;;;;9.80;5.63;;;;;;;8.53;95.00;102815.06;10544251;28;20032;-71
2022/05/08 23:38:48;;;;;;;13.45;5.75;;;;;;;8.50;94.43;102813.47;10542918;28;20040;-72
2022/05/08 23:43:48;;;;;;;17.70;7.18;;;;;;;8.48;92.18;102807.34;10544384;28;20044;-71
2022/05/08 23:48:49;;;;;;;20.20;6.40;;;;;;;8.41;92.30;102814.28;10526744;28;20388;-72
2022/05/08 23:53:49;;;;;;;14.18;5.97;;;;;;;8.37;92.58;102804.72;10543584;28;20035;-72
2022/05/08 23:58:50;;;;;;;12.98;5.95;;;;;;;8.32;93.09;102805.13;10543146;28;20115;-71
